createdAt,value
2018-11-11T00:00:55.343Z,10.03
2018-11-11T00:03:22.096Z,8.88
2018-11-11T00:05:50.090Z,8.63
2018-11-11T00:08:16.985Z,8.73
2018-11-11T00:10:43.731Z,6.08
2018-11-11T00:13:10.782Z,7.00
2018-11-11T00:15:37.655Z,8.33
2018-11-11T00:18:04.424Z,7.62
2018-11-11T00:20:31.275Z,6.80
2018-11-11T00:22:58.141Z,8.00
2018-11-11T00:25:25.119Z,7.53
2018-11-11T00:27:51.875Z,10.13
2018-11-11T00:30:18.851Z,8.60
2018-11-11T00:32:45.713Z,6.87
2018-11-11T00:35:12.482Z,9.28
2018-11-11T00:37:39.340Z,9.43
2018-11-11T00:40:05.998Z,10.70
2018-11-11T00:42:32.858Z,13.95
2018-11-11T00:44:59.715Z,12.88
2018-11-11T00:47:26.695Z,19.35
2018-11-11T00:49:53.453Z,16.75
2018-11-11T00:52:20.421Z,15.85
2018-11-11T00:54:47.380Z,15.23
2018-11-11T00:57:14.254Z,9.80
2018-11-11T00:59:41.732Z,11.03
2018-11-11T01:02:08.712Z,13.10
2018-11-11T01:04:35.469Z,18.07
2018-11-11T01:07:02.330Z,12.23
2018-11-11T01:09:29.199Z,12.40
2018-11-11T01:11:56.171Z,9.45
2018-11-11T01:14:23.117Z,10.20
2018-11-11T01:16:50.092Z,9.15
2018-11-11T01:19:16.758Z,8.45
2018-11-11T01:21:43.620Z,8.00
2018-11-11T01:24:10.381Z,6.90
2018-11-11T01:26:37.242Z,10.30
2018-11-11T01:29:04.011Z,7.65
2018-11-11T01:31:30.878Z,7.75
2018-11-11T01:33:57.851Z,8.70
2018-11-11T01:36:24.713Z,8.15
2018-11-11T01:38:51.664Z,9.18
2018-11-11T01:41:18.636Z,11.35
2018-11-11T01:43:45.499Z,13.03
2018-11-11T01:46:12.374Z,10.15
2018-11-11T01:48:39.135Z,12.50
2018-11-11T01:51:06.003Z,6.37
2018-11-11T01:53:32.765Z,14.13
2018-11-11T01:56:00.843Z,11.33
2018-11-11T01:58:27.514Z,7.08
2018-11-11T02:00:54.468Z,7.35
2018-11-11T02:03:21.655Z,7.67
2018-11-11T02:05:48.610Z,12.30
2018-11-11T02:08:15.478Z,10.18
2018-11-11T02:10:42.355Z,11.25
2018-11-11T02:13:09.515Z,7.62
2018-11-11T02:15:36.290Z,8.68
2018-11-11T02:18:03.138Z,7.95
2018-11-11T02:20:30.010Z,6.87
2018-11-11T02:22:56.982Z,6.15
2018-11-11T02:25:24.263Z,9.45
2018-11-11T02:27:51.230Z,6.83
2018-11-11T02:30:17.990Z,8.90
2018-11-11T02:32:44.970Z,9.73
2018-11-11T02:35:12.128Z,7.60
2018-11-11T02:37:40.258Z,9.10
2018-11-11T02:40:07.072Z,9.93
2018-11-11T02:42:35.164Z,12.65
2018-11-11T02:45:02.436Z,9.75
2018-11-11T02:47:29.519Z,7.25
2018-11-11T02:49:56.490Z,7.47
2018-11-11T02:52:23.450Z,7.10
2018-11-11T02:54:50.723Z,11.28
2018-11-11T02:57:17.580Z,5.65
2018-11-11T02:59:44.340Z,6.92
2018-11-11T03:02:11.212Z,10.93
2018-11-11T03:04:38.084Z,10.23
2018-11-11T03:07:04.937Z,7.62
2018-11-11T03:09:31.911Z,6.10
2018-11-11T03:11:58.879Z,7.17
2018-11-11T03:14:26.159Z,8.33
2018-11-11T03:16:53.017Z,5.75
2018-11-11T03:19:19.775Z,7.60
2018-11-11T03:21:46.653Z,5.83
2018-11-11T03:24:13.411Z,7.92
2018-11-11T03:26:40.376Z,9.00
2018-11-11T03:29:07.135Z,7.05
2018-11-11T03:31:33.999Z,8.23
2018-11-11T03:34:01.277Z,9.58
2018-11-11T03:36:29.457Z,6.55
2018-11-11T03:38:56.350Z,6.78
2018-11-11T03:41:23.304Z,11.12
2018-11-11T03:43:50.163Z,7.67
2018-11-11T03:46:16.863Z,12.30
2018-11-11T03:48:44.001Z,6.92
2018-11-11T03:51:11.363Z,8.50
2018-11-11T03:53:38.243Z,8.08
2018-11-11T03:56:05.004Z,5.35
2018-11-11T03:58:32.021Z,16.55
2018-11-11T04:00:59.051Z,7.35
2018-11-11T04:03:25.998Z,8.30
2018-11-11T04:05:52.797Z,7.42
2018-11-11T04:08:19.631Z,5.72
2018-11-11T04:10:46.699Z,8.28
2018-11-11T04:13:13.569Z,6.50
2018-11-11T04:15:40.323Z,8.75
2018-11-11T04:18:07.196Z,8.45
2018-11-11T04:20:33.953Z,9.33
2018-11-11T04:23:00.929Z,8.53
2018-11-11T04:25:27.895Z,8.18
2018-11-11T04:27:54.756Z,9.60
2018-11-11T04:30:21.721Z,7.95
2018-11-11T04:32:48.592Z,9.55
2018-11-11T04:35:15.360Z,8.93
2018-11-11T04:37:42.229Z,7.62
2018-11-11T04:40:09.083Z,7.55
2018-11-11T04:42:35.936Z,14.90
2018-11-11T04:45:03.026Z,7.15
2018-11-11T04:47:32.133Z,9.20
2018-11-11T04:49:59.001Z,12.63
2018-11-11T04:52:25.856Z,6.80
2018-11-11T04:54:53.449Z,9.63
2018-11-11T04:57:20.293Z,5.65
2018-11-11T04:59:47.074Z,6.85
2018-11-11T05:02:13.928Z,7.95
2018-11-11T05:04:40.863Z,6.78
2018-11-11T05:07:07.773Z,9.00
2018-11-11T05:09:35.034Z,7.67
2018-11-11T05:12:02.001Z,7.00
2018-11-11T05:14:28.880Z,9.73
2018-11-11T05:16:55.731Z,10.00
2018-11-11T05:19:22.597Z,9.05
2018-11-11T05:21:49.376Z,13.50
2018-11-11T05:24:17.444Z,10.08
2018-11-11T05:26:44.329Z,20.00
2018-11-11T05:29:11.174Z,12.50
2018-11-11T05:31:37.953Z,14.13
2018-11-11T05:34:04.918Z,14.20
2018-11-11T05:36:31.682Z,13.83
2018-11-11T05:38:58.638Z,12.37
2018-11-11T05:41:25.621Z,8.80
2018-11-11T05:43:52.469Z,12.47
2018-11-11T05:46:19.239Z,12.98
2018-11-11T05:48:46.090Z,12.68
2018-11-11T05:51:12.859Z,12.88
2018-11-11T05:53:39.718Z,8.38
2018-11-11T05:56:06.702Z,10.50
2018-11-11T05:58:33.660Z,10.05
2018-11-11T06:01:00.629Z,10.18
2018-11-11T06:03:27.718Z,9.88
2018-11-11T06:05:54.455Z,11.10
2018-11-11T06:08:21.330Z,8.45
2018-11-11T06:10:48.094Z,8.63
2018-11-11T06:13:14.957Z,9.20
2018-11-11T06:15:41.819Z,9.35
2018-11-11T06:18:08.689Z,8.98
2018-11-11T06:20:35.556Z,8.33
2018-11-11T06:23:02.415Z,11.63
2018-11-11T06:25:29.277Z,8.93
2018-11-11T06:27:56.155Z,10.82
2018-11-11T06:30:23.001Z,10.25
2018-11-11T06:32:49.879Z,9.58
2018-11-11T06:35:16.634Z,12.75
2018-11-11T06:37:43.501Z,19.60
2018-11-11T06:40:10.258Z,17.10
2018-11-11T06:42:37.120Z,15.13
2018-11-11T06:45:03.995Z,13.70
2018-11-11T06:47:30.956Z,15.00
2018-11-11T06:49:57.930Z,14.03
2018-11-11T06:52:24.688Z,15.85
2018-11-11T06:54:51.551Z,14.10
2018-11-11T06:57:18.429Z,11.50
2018-11-11T06:59:45.285Z,11.50
2018-11-11T07:02:12.149Z,14.20
2018-11-11T07:04:39.125Z,10.25
2018-11-11T07:07:05.972Z,8.93
2018-11-11T07:09:32.840Z,8.88
2018-11-11T07:11:59.804Z,9.35
2018-11-11T07:14:27.079Z,11.22
2018-11-11T07:16:53.840Z,13.48
2018-11-11T07:19:20.608Z,8.75
2018-11-11T07:21:47.475Z,9.55
2018-11-11T07:24:14.385Z,8.68
2018-11-11T07:26:41.211Z,8.35
2018-11-11T07:29:08.032Z,11.85
2018-11-11T07:31:34.944Z,12.47
2018-11-11T07:34:01.907Z,10.23
2018-11-11T07:36:28.867Z,10.82
2018-11-11T07:38:55.840Z,9.20
2018-11-11T07:41:22.829Z,9.03
2018-11-11T07:43:50.742Z,7.72
2018-11-11T07:46:17.703Z,8.80
2018-11-11T07:48:44.651Z,16.23
2018-11-11T07:51:12.548Z,10.58
2018-11-11T07:53:39.786Z,12.80
2018-11-11T07:56:07.163Z,12.47
2018-11-11T07:58:37.414Z,11.80
2018-11-11T08:01:04.368Z,8.13
2018-11-11T08:06:03.211Z,16.73
2018-11-11T08:08:30.682Z,12.53
2018-11-11T08:10:58.264Z,11.90
2018-11-11T08:13:25.610Z,9.05
2018-11-11T08:15:53.246Z,12.68
2018-11-11T08:18:22.974Z,12.60
2018-11-11T08:23:24.678Z,10.32
2018-11-11T08:25:52.073Z,9.83
2018-11-11T08:43:38.135Z,6.70
2018-11-11T08:46:06.733Z,7.80
2018-11-11T08:48:34.249Z,8.80
2018-11-11T09:56:59.581Z,12.45
2018-11-11T09:59:26.967Z,9.88
2018-11-11T10:01:54.634Z,8.28
2018-11-11T10:04:22.321Z,8.40
2018-11-11T10:09:25.773Z,14.18
2018-11-11T10:17:03.960Z,10.82
2018-11-11T10:19:34.352Z,8.40
2018-11-11T10:22:01.699Z,5.87
2018-11-11T10:24:28.856Z,7.33
2018-11-11T10:26:56.673Z,7.45
2018-11-11T11:04:26.474Z,5.50
2018-11-11T11:19:38.155Z,9.23
2018-11-11T11:22:06.614Z,5.60
2018-11-11T11:24:33.815Z,7.17
2018-11-11T11:27:01.280Z,7.40
2018-11-11T11:29:28.352Z,6.30
2018-11-11T11:31:55.502Z,7.30
2018-11-11T11:34:22.711Z,8.93
2018-11-11T11:36:49.747Z,5.77
2018-11-11T11:39:16.516Z,4.70
2018-11-11T11:41:43.379Z,4.60
2018-11-11T11:44:10.332Z,4.53
2018-11-11T11:46:37.119Z,3.20
2018-11-11T11:49:03.954Z,4.63
2018-11-11T11:51:30.839Z,12.53
2018-11-11T11:53:57.698Z,4.60
2018-11-11T11:56:24.759Z,7.93
2018-11-11T11:58:51.783Z,6.13
2018-11-11T12:06:24.502Z,5.10
2018-11-11T12:08:54.906Z,3.00
2018-11-11T12:13:59.750Z,4.50
2018-11-11T12:47:11.253Z,2.40
2018-11-11T12:49:38.355Z,2.57
2018-11-11T13:35:17.311Z,3.43
2018-11-11T13:40:16.282Z,2.43
2018-11-11T14:26:29.039Z,2.98
2018-11-11T14:31:29.244Z,4.75
2018-11-11T14:33:56.386Z,2.47
2018-11-11T14:36:26.751Z,3.85
2018-11-11T14:38:54.019Z,2.37
2018-11-11T14:51:31.025Z,3.92
2018-11-11T14:54:01.603Z,4.97
2018-11-11T14:56:33.407Z,3.15
2018-11-11T15:01:32.747Z,4.12
2018-11-11T15:06:36.026Z,3.75
2018-11-11T15:11:41.420Z,4.50
2018-11-11T15:14:09.339Z,4.80
2018-11-11T15:19:19.479Z,4.20
2018-11-11T15:24:20.592Z,3.83
2018-11-11T15:26:48.084Z,3.42
2018-11-11T15:29:15.703Z,2.87
2018-11-11T15:31:43.918Z,3.25
2018-11-11T15:34:11.052Z,3.55
2018-11-11T15:36:38.901Z,1.85
2018-11-11T15:39:06.590Z,1.80
2018-11-11T15:41:35.667Z,2.17
2018-11-11T15:49:10.055Z,5.72
2018-11-11T15:51:38.960Z,3.50
2018-11-11T15:54:06.511Z,5.15
2018-11-11T15:56:36.238Z,3.10
2018-11-11T15:59:03.251Z,4.35
2018-11-11T16:01:34.793Z,4.00
2018-11-11T16:04:02.008Z,6.50
2018-11-11T16:09:01.201Z,6.20
2018-11-11T16:11:33.046Z,6.95
2018-11-11T16:14:00.352Z,5.80
2018-11-11T16:16:28.468Z,6.62
2018-11-11T16:22:00.042Z,9.48
2018-11-11T16:24:31.472Z,6.87
2018-11-11T16:26:59.334Z,6.80
2018-11-11T16:29:26.475Z,6.62
2018-11-11T16:31:55.470Z,7.78
2018-11-11T16:34:24.040Z,9.33
2018-11-11T16:36:52.488Z,4.40
2018-11-11T16:39:20.118Z,8.28
2018-11-11T16:41:49.536Z,7.08
2018-11-11T16:44:16.382Z,5.80
2018-11-11T16:46:44.024Z,10.20
2018-11-11T16:49:10.900Z,5.55
2018-11-11T16:51:38.091Z,13.65
2018-11-11T16:54:06.155Z,16.97
2018-11-11T16:56:36.068Z,15.48
2018-11-11T16:59:04.394Z,16.10
2018-11-11T17:01:32.965Z,12.98
2018-11-11T17:03:59.824Z,11.97
2018-11-11T17:08:59.937Z,12.55
2018-11-11T17:11:26.850Z,15.85
2018-11-11T17:13:53.957Z,16.60
2018-11-11T17:18:53.806Z,9.95
2018-11-11T17:21:20.862Z,6.42
2018-11-11T17:23:47.728Z,7.67
2018-11-11T17:26:14.706Z,6.10
2018-11-11T17:28:42.606Z,7.20
2018-11-11T17:31:10.108Z,6.65
2018-11-11T17:33:37.131Z,6.67
2018-11-11T17:36:05.229Z,8.80
2018-11-11T17:38:32.533Z,7.95
2018-11-11T17:41:01.053Z,11.57
2018-11-11T17:43:28.473Z,9.20
2018-11-11T17:45:56.807Z,10.78
2018-11-11T17:48:24.265Z,11.80
2018-11-11T17:50:52.307Z,16.65
2018-11-11T17:53:19.607Z,10.48
2018-11-11T17:55:46.687Z,9.33
2018-11-11T17:58:13.455Z,11.63
2018-11-11T18:00:42.575Z,8.18
2018-11-11T18:03:09.803Z,9.45
2018-11-11T18:05:37.103Z,10.30
2018-11-11T18:08:04.029Z,12.75
2018-11-11T18:10:31.369Z,10.80
2018-11-11T18:12:58.211Z,10.70
2018-11-11T18:15:25.472Z,10.78
2018-11-11T18:17:53.707Z,10.60
2018-11-11T18:20:20.952Z,12.45
2018-11-11T18:22:48.366Z,15.55
2018-11-11T18:25:15.538Z,24.30
2018-11-11T18:27:42.534Z,11.38
2018-11-11T18:30:10.366Z,12.23
2018-11-11T18:32:37.845Z,12.03
2018-11-11T18:35:04.939Z,22.93
2018-11-11T18:37:31.932Z,16.73
2018-11-11T18:39:59.452Z,19.62
2018-11-11T18:42:26.692Z,17.75
2018-11-11T18:44:53.868Z,21.07
2018-11-11T18:47:22.121Z,13.58
2018-11-11T18:49:49.084Z,18.60
2018-11-11T18:52:16.943Z,17.40
2018-11-11T18:54:44.243Z,15.00
2018-11-11T18:57:12.453Z,31.93
2018-11-11T18:59:39.325Z,10.75
2018-11-11T19:02:06.264Z,10.82
2018-11-11T19:04:33.330Z,12.00
2018-11-11T19:07:00.982Z,12.78
2018-11-11T19:09:28.288Z,34.10
2018-11-11T19:11:55.881Z,60.40
2018-11-11T19:14:22.903Z,51.60
2018-11-11T19:16:49.800Z,40.90
2018-11-11T19:19:16.642Z,30.35
2018-11-11T19:21:43.478Z,19.45
2018-11-11T19:24:10.623Z,16.65
2018-11-11T19:26:37.579Z,23.12
2018-11-11T19:29:04.289Z,23.02
2018-11-11T19:31:31.266Z,33.63
2018-11-11T19:33:58.165Z,29.92
2018-11-11T19:36:25.644Z,29.27
2018-11-11T19:38:52.830Z,30.60
2018-11-11T19:41:20.124Z,25.40
2018-11-11T19:43:47.151Z,32.28
2018-11-11T19:46:14.031Z,30.32
2018-11-11T19:48:40.831Z,29.27
2018-11-11T19:51:07.950Z,30.00
2018-11-11T19:53:35.871Z,34.03
2018-11-11T19:56:04.131Z,32.33
2018-11-11T19:58:31.491Z,35.90
2018-11-11T20:00:58.590Z,36.15
2018-11-11T20:03:25.711Z,34.58
2018-11-11T20:05:53.502Z,34.70
2018-11-11T20:08:20.541Z,34.55
2018-11-11T20:10:47.472Z,34.20
2018-11-11T20:13:14.808Z,28.07
2018-11-11T20:15:41.808Z,24.60
2018-11-11T20:18:09.187Z,20.45
2018-11-11T20:20:36.281Z,14.47
2018-11-11T20:23:03.242Z,10.80
2018-11-11T20:25:30.216Z,10.08
2018-11-11T20:27:57.466Z,11.85
2018-11-11T20:30:24.217Z,13.08
2018-11-11T20:32:51.180Z,17.67
2018-11-11T20:35:18.115Z,12.73
2018-11-11T20:37:44.936Z,12.98
2018-11-11T20:40:11.896Z,12.80
2018-11-11T20:42:38.883Z,14.33
2018-11-11T20:45:06.458Z,14.98
2018-11-11T20:47:33.317Z,18.20
2018-11-11T20:50:00.215Z,15.35
2018-11-11T20:52:27.244Z,16.65
2018-11-11T20:54:54.117Z,13.83
2018-11-11T20:57:21.096Z,13.25
2018-11-11T20:59:47.874Z,19.67
2018-11-11T21:02:14.816Z,31.75
2018-11-11T21:04:41.636Z,38.10
2018-11-11T21:07:08.823Z,28.75
2018-11-11T21:09:35.955Z,27.10
2018-11-11T21:12:02.990Z,17.42
2018-11-11T21:14:31.451Z,16.60
2018-11-11T21:16:58.976Z,16.65
2018-11-11T21:19:25.980Z,17.57
2018-11-11T21:21:52.909Z,23.70
2018-11-11T21:24:19.728Z,13.45
2018-11-11T21:26:46.796Z,12.78
2018-11-11T21:29:14.207Z,11.55
2018-11-11T21:31:41.649Z,10.72
2018-11-11T21:34:08.942Z,17.20
2018-11-11T21:36:35.759Z,15.35
2018-11-11T21:39:03.062Z,11.68
2018-11-11T21:41:30.157Z,9.78
2018-11-11T21:43:57.325Z,15.50
2018-11-11T21:46:24.392Z,13.50
2018-11-11T21:48:51.392Z,10.80
2018-11-11T21:51:18.275Z,14.07
2018-11-11T21:53:45.313Z,14.55
2018-11-11T21:56:13.154Z,11.08
2018-11-11T21:58:41.276Z,12.90
2018-11-11T22:01:08.176Z,12.00
2018-11-11T22:03:35.026Z,13.45
2018-11-11T22:06:01.883Z,13.32
2018-11-11T22:08:29.491Z,13.38
2018-11-11T22:10:56.671Z,12.55
2018-11-11T22:13:25.125Z,11.70
2018-11-11T22:15:51.996Z,13.48
2018-11-11T22:18:19.006Z,16.23
2018-11-11T22:20:45.945Z,14.50
2018-11-11T22:25:44.934Z,21.55
2018-11-11T22:30:43.845Z,41.20
2018-11-11T22:35:43.065Z,62.27
2018-11-11T22:38:12.845Z,55.05
2018-11-11T22:40:39.785Z,49.73
2018-11-11T22:43:08.945Z,53.65
2018-11-11T22:45:35.745Z,48.02
2018-11-11T22:48:02.566Z,43.73
2018-11-11T22:50:29.386Z,42.75
2018-11-11T22:52:56.305Z,29.50
2018-11-11T22:55:23.018Z,30.02
2018-11-11T22:57:49.945Z,26.07
2018-11-11T23:00:16.728Z,21.70
2018-11-11T23:02:43.645Z,28.57
2018-11-11T23:05:10.465Z,20.15
2018-11-11T23:07:37.525Z,13.48
2018-11-11T23:10:04.285Z,16.62
2018-11-11T23:12:31.066Z,12.63
2018-11-11T23:14:58.327Z,25.37
2018-11-11T23:17:25.325Z,11.22
2018-11-11T23:19:52.645Z,16.50
2018-11-11T23:22:19.545Z,13.80
2018-11-11T23:24:46.247Z,11.35
2018-11-11T23:27:13.154Z,21.95
2018-11-11T23:29:40.150Z,14.30
2018-11-11T23:32:08.030Z,18.75
2018-11-11T23:34:35.047Z,17.05
2018-11-11T23:37:02.258Z,14.15
2018-11-11T23:39:29.216Z,15.72
2018-11-11T23:41:56.117Z,13.28
2018-11-11T23:44:22.904Z,17.87
2018-11-11T23:46:49.737Z,21.35
2018-11-11T23:49:16.780Z,20.40
2018-11-11T23:51:43.688Z,14.55
2018-11-11T23:54:10.698Z,20.95
2018-11-11T23:56:37.838Z,18.70
2018-11-11T23:59:06.112Z,19.75
